Lynden, WA

10:42 AM PDT on May 25, 2015 (GMT -0700)
KWALYNDE1 | | Change Station
CLOSE
Current Station
Personal Weather Station
Location: Lynden, WA
Elevation: 58 ft
Nearby Weather Stations

Elev 58 ft 48.95 °N, 122.48 °W | Updated 12 seconds ago

Overcast
Overcast
52.4 °F
Feels Like 52.4 °F
N
1.0
Wind Variable Wind from SW
Gusts 3.0 mph

Today
High -- | Low -- °F
--% Chance of Precip.
Yesterday
High -- | Low -- °F
Precip. -- in
5:16 AM 8:57 PM
Waxing Crescent, 50% visible
Pressure 30.02 in
Visibility 10.0 miles
Clouds Overcast 400 ft
Dew Point 52 °F
Humidity 100%
Rainfall -999.00 in
Snow Depth Not available.
UV 2 out of 12
Pollen 7.70 out of 12
Air Quality Not available.
Flu Activity Sporadic
METAR KBLI 251653Z 17007KT 10SM OVC004 11/11 A2999 RMK AO2 RAB02E36 SLP164 P0003 T01110106

More Conditions Fewer Conditions

Pressure 30.02 in
Visibility 10.0 miles
Clouds Overcast 400 ft
Dew Point 52 °F
Humidity 100%
Rainfall -999.00 in
Snow Depth Not available.
UV 2 out of 12
Pollen 7.70 out of 12
Air Quality Not available.
Flu Activity Sporadic
METAR KBLI 251653Z 17007KT 10SM OVC004 11/11 A2999 RMK AO2 RAB02E36 SLP164 P0003 T01110106

More Conditions Fewer Conditions

10-Day Weather Forecast

Almanac

Astronomy

May. 25, 2015 Rise Set
Actual Time
Civil Twilight
Nautical Twilight
Astronomical Twilight
Moon
Length of Visible Light
Length of Day
Tomorrow will be .
, % of the Moon is Illuminated

Today's Extremes

State Highs State Lows

Community

WunderPhotos

Upload Photos

1,824,071 photos uploaded!

WunderBlogs® & News

Nearby

Air Quality

  Air Quality AQ Index Pollutant
Not available.

Snow Depth

Station Depth Elevation

Earthquake Activity

City Distance Mag. Time & Date
Minimum magnitude displayed is 2.5.

Coastal Water Temperatures

Place Temperature

Stations

Nearby Weather Stations

Station Location Temp. Windchill Dew Point Humidity Wind Precip. Elev Updated Type